createdAt,value
2023-03-22T00:01:53.780Z,60.83
2023-03-22T00:04:24.981Z,60.68
2023-03-22T00:06:55.421Z,60.75
2023-03-22T00:09:26.031Z,60.93
2023-03-22T00:11:56.498Z,60.93
2023-03-22T00:14:27.064Z,60.75
2023-03-22T00:16:57.503Z,60.97
2023-03-22T00:19:29.223Z,60.98
2023-03-22T00:22:00.746Z,60.97
2023-03-22T00:24:31.211Z,60.95
2023-03-22T00:27:01.997Z,60.88
2023-03-22T00:29:32.484Z,60.82
2023-03-22T00:32:04.329Z,60.91
2023-03-22T00:34:35.681Z,60.91
2023-03-22T00:37:08.131Z,61.01
2023-03-22T00:39:38.705Z,60.86
2023-03-22T00:42:09.541Z,60.82
2023-03-22T00:44:40.025Z,60.59
2023-03-22T00:47:10.747Z,60.75
2023-03-22T00:49:41.254Z,60.47
2023-03-22T00:52:11.789Z,60.83
2023-03-22T00:54:42.435Z,60.93
2023-03-22T00:57:14.303Z,60.80
2023-03-22T00:59:44.773Z,60.76
2023-03-22T01:02:15.795Z,60.57
2023-03-22T01:04:48.039Z,60.86
2023-03-22T01:07:21.554Z,61.01
2023-03-22T01:09:53.220Z,60.97
2023-03-22T01:12:23.651Z,61.06
2023-03-22T01:14:54.239Z,61.11
2023-03-22T01:17:25.133Z,60.93
2023-03-22T01:19:55.859Z,61.20
2023-03-22T01:22:26.610Z,61.17
2023-03-22T01:24:57.805Z,61.26
2023-03-22T01:27:28.348Z,61.28
2023-03-22T01:29:58.777Z,61.20
2023-03-22T01:32:29.303Z,61.39
2023-03-22T01:34:59.874Z,61.10
2023-03-22T01:37:32.718Z,61.38
2023-03-22T01:40:03.877Z,61.35
2023-03-22T01:42:34.687Z,61.34
2023-03-22T01:45:35.771Z,61.23
2023-03-22T01:48:10.997Z,61.09
2023-03-22T01:50:46.941Z,61.41
2023-03-22T01:53:23.684Z,61.25
2023-03-22T01:55:56.458Z,61.24
2023-03-22T01:58:32.242Z,61.25
2023-03-22T02:01:06.023Z,61.41
2023-03-22T02:03:49.387Z,61.74
2023-03-22T02:06:21.454Z,61.50
2023-03-22T02:08:58.061Z,61.78
2023-03-22T02:11:33.422Z,61.58
2023-03-22T02:14:43.992Z,61.47
2023-03-22T02:17:43.882Z,61.74
2023-03-22T02:20:47.159Z,61.73
2023-03-22T02:23:40.753Z,61.69
2023-03-22T02:26:41.956Z,61.87
2023-03-22T02:29:19.390Z,61.87
2023-03-22T02:32:26.440Z,61.93
2023-03-22T02:35:24.449Z,62.22
2023-03-22T02:38:21.134Z,62.24
2023-03-22T02:40:53.901Z,62.31
2023-03-22T02:43:38.649Z,62.24
2023-03-22T02:46:15.420Z,62.33
2023-03-22T02:48:54.143Z,62.19
2023-03-22T02:51:30.707Z,62.30
2023-03-22T02:54:06.579Z,62.12
2023-03-22T02:56:41.643Z,62.19
2023-03-22T02:59:14.958Z,62.18
2023-03-22T03:01:50.492Z,62.18
2023-03-22T03:04:26.847Z,62.30
2023-03-22T03:07:01.851Z,62.30
2023-03-22T03:09:34.839Z,62.14
2023-03-22T03:12:10.411Z,62.39
2023-03-22T03:14:40.939Z,62.23
2023-03-22T03:17:23.787Z,62.32
2023-03-22T03:20:08.836Z,62.45
2023-03-22T03:22:53.745Z,62.29
2023-03-22T03:25:33.568Z,62.49
2023-03-22T03:28:11.488Z,62.34
2023-03-22T03:30:46.817Z,62.74
2023-03-22T03:33:20.859Z,62.42
2023-03-22T03:35:56.220Z,62.59
2023-03-22T03:38:30.363Z,62.46
2023-03-22T03:41:05.453Z,62.34
2023-03-22T03:43:38.015Z,62.57
2023-03-22T03:46:10.607Z,62.58
2023-03-22T03:48:43.882Z,62.61
2023-03-22T03:51:14.747Z,62.75
2023-03-22T03:53:45.597Z,62.61
2023-03-22T03:56:16.397Z,62.66
2023-03-22T03:58:48.620Z,62.67
2023-03-22T04:01:20.742Z,62.67
2023-03-22T04:04:15.257Z,62.95
2023-03-22T04:06:59.556Z,62.66
2023-03-22T04:09:33.793Z,63.24
2023-03-22T04:12:13.442Z,63.53
2023-03-22T04:14:44.940Z,63.26
2023-03-22T04:17:21.952Z,63.24
2023-03-22T04:19:53.597Z,63.17
2023-03-22T04:22:24.156Z,62.92
2023-03-22T04:24:54.637Z,63.18
2023-03-22T04:27:25.626Z,63.44
2023-03-22T04:30:01.608Z,63.42
2023-03-22T04:32:50.903Z,63.77
2023-03-22T04:35:23.608Z,63.51
2023-03-22T04:37:56.649Z,63.26
2023-03-22T04:40:28.906Z,63.50
2023-03-22T04:43:10.846Z,63.30
2023-03-22T04:46:01.734Z,63.68
2023-03-22T04:48:37.613Z,63.49
2023-03-22T04:51:09.759Z,63.53
2023-03-22T04:53:44.105Z,63.71
2023-03-22T04:56:15.923Z,63.75
2023-03-22T04:58:47.061Z,64.07
2023-03-22T05:01:19.205Z,63.63
2023-03-22T05:03:50.976Z,63.60
2023-03-22T05:06:24.633Z,63.74
2023-03-22T05:09:02.053Z,63.81
2023-03-22T05:11:32.841Z,63.95
2023-03-22T05:14:15.913Z,63.77
2023-03-22T05:16:46.455Z,63.75
2023-03-22T05:19:17.121Z,63.74
2023-03-22T05:21:57.958Z,63.73
2023-03-22T05:24:31.725Z,63.93
2023-03-22T05:27:03.756Z,63.84
2023-03-22T05:29:36.993Z,63.97
2023-03-22T05:32:18.483Z,63.93
2023-03-22T05:34:50.272Z,63.99
2023-03-22T05:37:27.094Z,63.89
2023-03-22T05:39:59.864Z,64.15
2023-03-22T05:42:37.873Z,64.18
2023-03-22T05:45:17.809Z,64.06
2023-03-22T05:47:51.829Z,64.08
2023-03-22T05:50:25.809Z,64.21
2023-03-22T05:52:57.453Z,64.25
2023-03-22T05:55:53.194Z,64.28
2023-03-22T05:58:24.455Z,64.38
2023-03-22T06:00:55.765Z,64.30
2023-03-22T06:03:29.452Z,64.29
2023-03-22T06:06:11.612Z,64.27
2023-03-22T06:08:50.907Z,64.01
2023-03-22T06:11:21.529Z,63.89
2023-03-22T06:13:52.601Z,63.76
2023-03-22T06:16:24.059Z,63.68
2023-03-22T06:18:54.621Z,63.71
2023-03-22T06:21:25.127Z,63.84
2023-03-22T06:23:55.649Z,63.73
2023-03-22T06:26:26.959Z,63.61
2023-03-22T06:28:57.419Z,63.67
2023-03-22T06:31:27.908Z,63.73
2023-03-22T06:34:07.191Z,63.76
2023-03-22T06:36:43.026Z,63.63
2023-03-22T06:39:20.908Z,63.65
2023-03-22T06:41:52.455Z,63.35
2023-03-22T06:44:23.602Z,63.55
2023-03-22T06:46:54.066Z,63.79
2023-03-22T06:49:35.077Z,63.84
2023-03-22T06:52:06.793Z,63.85
2023-03-22T06:54:37.529Z,63.89
2023-03-22T06:57:08.144Z,63.97
2023-03-22T06:59:40.483Z,63.80
2023-03-22T07:02:14.536Z,63.84
2023-03-22T07:04:48.077Z,63.57
2023-03-22T07:07:18.886Z,63.90
2023-03-22T07:09:50.628Z,63.91
2023-03-22T07:12:21.253Z,63.89
2023-03-22T07:14:52.602Z,63.90
2023-03-22T07:17:31.937Z,63.90
2023-03-22T07:20:04.103Z,64.06
2023-03-22T07:22:34.760Z,64.09
2023-03-22T07:25:05.961Z,63.96
2023-03-22T07:27:36.838Z,64.05
2023-03-22T07:30:09.942Z,64.00
2023-03-22T07:32:43.844Z,63.85
2023-03-22T07:35:18.992Z,63.85
2023-03-22T07:37:51.171Z,63.84
2023-03-22T07:40:27.147Z,63.65
2023-03-22T07:42:59.076Z,63.65
2023-03-22T07:45:49.380Z,63.37
2023-03-22T07:48:36.174Z,63.30
2023-03-22T07:51:26.619Z,63.59
2023-03-22T07:53:57.114Z,63.33
2023-03-22T07:56:27.936Z,63.30
2023-03-22T07:58:58.557Z,63.55
2023-03-22T08:01:29.882Z,63.08
2023-03-22T08:04:19.583Z,63.19
2023-03-22T08:07:02.088Z,63.27
2023-03-22T08:09:33.348Z,63.38
2023-03-22T08:12:03.995Z,63.11
2023-03-22T08:14:37.352Z,62.83
2023-03-22T08:17:10.871Z,62.78
2023-03-22T08:19:41.485Z,62.43
2023-03-22T08:22:13.616Z,62.67
2023-03-22T08:25:16.366Z,62.27
2023-03-22T08:27:47.402Z,62.21
2023-03-22T08:30:18.393Z,62.21
2023-03-22T08:32:48.965Z,62.12
2023-03-22T08:35:19.645Z,62.05
2023-03-22T08:37:54.035Z,62.18
2023-03-22T08:40:25.054Z,61.91
2023-03-22T08:43:00.721Z,62.00
2023-03-22T08:45:32.409Z,61.71
2023-03-22T08:48:09.619Z,61.37
2023-03-22T08:51:06.463Z,61.28
2023-03-22T08:53:49.711Z,61.32
2023-03-22T08:56:39.119Z,61.12
2023-03-22T08:59:19.265Z,61.00
2023-03-22T09:01:59.471Z,60.80
2023-03-22T09:04:31.005Z,60.88
2023-03-22T09:07:01.438Z,60.57
2023-03-22T09:09:31.958Z,60.49
2023-03-22T09:12:02.524Z,60.32
2023-03-22T09:14:33.274Z,60.16
2023-03-22T09:17:04.300Z,59.89
2023-03-22T09:19:35.927Z,60.18
2023-03-22T09:22:08.694Z,60.00
2023-03-22T09:24:46.808Z,59.82
2023-03-22T09:27:17.368Z,59.38
2023-03-22T09:29:49.480Z,59.52
2023-03-22T09:32:20.656Z,59.18
2023-03-22T09:34:57.437Z,59.19
2023-03-22T09:37:30.497Z,59.30
2023-03-22T09:40:01.626Z,58.70
2023-03-22T09:42:38.959Z,58.47
2023-03-22T09:45:17.748Z,58.87
2023-03-22T09:47:50.464Z,58.86
2023-03-22T09:50:23.525Z,58.68
2023-03-22T09:52:54.498Z,58.22
2023-03-22T09:55:31.636Z,58.07
2023-03-22T09:58:11.525Z,57.83
2023-03-22T10:00:46.954Z,57.29
2023-03-22T10:03:26.977Z,57.05
2023-03-22T10:06:03.574Z,57.44
2023-03-22T10:08:44.050Z,57.24
2023-03-22T10:11:22.142Z,57.39
2023-03-22T10:14:01.367Z,57.34
2023-03-22T10:16:35.818Z,56.93
2023-03-22T10:19:22.598Z,57.05
2023-03-22T10:21:55.887Z,57.03
2023-03-22T10:24:29.503Z,56.90
2023-03-22T10:27:00.028Z,56.70
2023-03-22T10:29:36.085Z,56.61
2023-03-22T10:32:19.115Z,56.69
2023-03-22T10:34:50.021Z,56.64
2023-03-22T10:37:24.992Z,56.58
2023-03-22T10:39:59.675Z,56.34
2023-03-22T10:42:32.737Z,56.23
2023-03-22T10:45:05.267Z,55.96
2023-03-22T10:47:41.456Z,55.97
2023-03-22T10:50:19.462Z,56.14
2023-03-22T10:52:56.735Z,56.01
2023-03-22T10:55:27.537Z,55.96
2023-03-22T10:58:11.752Z,55.91
2023-03-22T11:00:47.278Z,56.01
2023-03-22T11:03:29.906Z,55.99
2023-03-22T11:06:07.431Z,55.79
2023-03-22T11:08:49.581Z,55.73
2023-03-22T11:11:23.534Z,55.54
2023-03-22T11:14:00.198Z,55.68
2023-03-22T11:16:32.156Z,55.74
2023-03-22T11:19:02.677Z,55.91
2023-03-22T11:21:34.576Z,55.75
2023-03-22T11:24:05.505Z,55.63
2023-03-22T11:26:40.771Z,55.73
2023-03-22T11:29:18.404Z,55.91
2023-03-22T11:31:56.316Z,56.01
2023-03-22T11:34:29.898Z,55.83
2023-03-22T11:37:02.415Z,55.58
2023-03-22T11:39:32.874Z,55.76
2023-03-22T11:42:06.705Z,55.65
2023-03-22T11:44:38.608Z,55.41
2023-03-22T11:47:09.574Z,55.47
2023-03-22T11:49:44.986Z,55.49
2023-03-22T11:52:20.264Z,55.24
2023-03-22T11:54:51.954Z,55.11
2023-03-22T11:57:27.330Z,54.93
2023-03-22T12:00:07.035Z,54.68
2023-03-22T12:02:44.738Z,54.67
2023-03-22T12:05:22.539Z,54.43
2023-03-22T12:07:57.240Z,54.30
2023-03-22T12:10:32.343Z,54.09
2023-03-22T12:13:06.126Z,53.77
2023-03-22T12:15:39.794Z,53.37
2023-03-22T12:18:16.506Z,53.11
2023-03-22T12:20:54.593Z,52.75
2023-03-22T12:23:26.885Z,52.65
2023-03-22T12:26:02.411Z,52.75
2023-03-22T12:28:40.626Z,52.74
2023-03-22T12:31:16.687Z,52.63
2023-03-22T12:33:49.219Z,52.55
2023-03-22T12:36:24.934Z,52.33
2023-03-22T12:38:58.622Z,52.24
2023-03-22T12:41:33.349Z,52.39
2023-03-22T12:44:10.642Z,52.24
2023-03-22T12:46:50.345Z,52.21
2023-03-22T12:49:28.844Z,51.67
2023-03-22T12:52:11.818Z,50.75
2023-03-22T12:54:43.333Z,50.76
2023-03-22T12:57:15.782Z,50.56
2023-03-22T12:59:49.758Z,50.62
2023-03-22T13:02:27.515Z,50.04
2023-03-22T13:05:00.957Z,49.09
2023-03-22T13:07:39.048Z,48.59
2023-03-22T13:10:48.833Z,48.27
2023-03-22T13:13:41.442Z,48.35
2023-03-22T13:16:34.823Z,48.33
2023-03-22T13:19:26.952Z,48.16
2023-03-22T13:22:17.552Z,48.04
2023-03-22T13:25:13.778Z,47.62
2023-03-22T13:27:53.944Z,47.55
2023-03-22T13:30:31.079Z,47.38
2023-03-22T13:33:14.050Z,47.28
2023-03-22T13:35:48.870Z,46.96
2023-03-22T13:38:24.128Z,46.72
2023-03-22T13:41:01.002Z,46.56
2023-03-22T13:43:35.268Z,46.61
2023-03-22T13:46:28.416Z,46.59
2023-03-22T13:49:33.621Z,46.57
2023-03-22T13:52:08.867Z,46.65
2023-03-22T13:54:48.930Z,46.46
2023-03-22T13:57:56.953Z,46.25
2023-03-22T14:00:41.528Z,46.21
2023-03-22T14:03:23.634Z,46.27
2023-03-22T14:06:04.292Z,46.06
2023-03-22T14:08:37.432Z,46.04
2023-03-22T14:11:20.764Z,46.35
2023-03-22T14:13:57.205Z,46.56
2023-03-22T14:16:39.188Z,46.50
2023-03-22T14:19:17.653Z,46.42
